»·PEaware :: N4A KOTH-KRDD

N4A :: KOTH-KRDD

FLIGHT INFORMATION

Flight Status: Arrived
Operator: Privately registered:
United States
More flights under this callsign
Pilot: Alec D. (17934)
Aircraft: CESSNA 510 CITATION MUSTANG
(C510)
More flights by this aircraft type
Origin: KOTH North Bend Mun
United States
Destination: KRDD Redding Mun
United States
More flights between these airports :: More routes between these airports
Route: +OTH6 OTH V287 OED V23 FOLDS
File this flight plan on PilotEdge
Remarks:
Altitude:
(Current/Filed)
27,000ft
Speed:
(Current/Filed)
340kts
Departed: 19-Jan-18 07:06 PM
Arrived: 19-Jan-18 07:59 PM
Distance/Time
Traveled:
195nm/0:53
Distance/Time
To Go:
Arrived

Flight Plot

Page will automatically refresh every two minutes.

Flight plan parsing failed; only flown route is shown


Map Options




Map Legend


Flown Route
Filed Route
Departure Airport
Arrival Airport
Navaid (VOR, NDB)
Fix

Horizontal Profiles

Position Reports

Time Latitude Longitude Heading Altitude Ground
Speed
19-Jan-18 18:36 43.414807 -124.246157 236 19ft 0kts
19-Jan-18 18:37 43.414807 -124.246157 236 19ft 0kts
19-Jan-18 18:38 43.414807 -124.246157 236 19ft 0kts
19-Jan-18 18:39 43.414807 -124.246157 236 19ft 0kts
19-Jan-18 18:40 43.414807 -124.246157 236 19ft 0kts
19-Jan-18 18:41 43.414807 -124.246157 236 19ft 0kts
19-Jan-18 18:42 43.414807 -124.246157 236 19ft 0kts
19-Jan-18 18:43 43.414807 -124.246157 236 19ft 0kts
19-Jan-18 18:44 43.414807 -124.246157 236 19ft 0kts
19-Jan-18 18:45 43.414807 -124.246157 236 19ft 0kts
19-Jan-18 18:46 43.414807 -124.246157 236 19ft 0kts
19-Jan-18 18:47 43.414807 -124.246157 236 19ft 0kts
19-Jan-18 18:48 43.414807 -124.246157 236 19ft 0kts
19-Jan-18 18:49 43.414807 -124.246157 236 19ft 0kts
19-Jan-18 18:50 43.414807 -124.246157 236 19ft 0kts
19-Jan-18 18:51 43.414807 -124.246157 236 19ft 0kts
19-Jan-18 18:52 43.414807 -124.246157 236 19ft 0kts
19-Jan-18 18:53 43.414807 -124.246157 236 19ft 0kts
19-Jan-18 18:54 43.414807 -124.246157 236 19ft 0kts
19-Jan-18 18:55 43.414807 -124.246157 236 19ft 0kts
19-Jan-18 18:56 43.414807 -124.246157 236 19ft 0kts
19-Jan-18 18:57 43.414807 -124.246157 236 19ft 0kts
19-Jan-18 18:58 43.414807 -124.246157 236 19ft 0kts
19-Jan-18 18:59 43.414807 -124.246157 236 19ft 0kts
19-Jan-18 19:00 43.414807 -124.246157 236 19ft 0kts
19-Jan-18 19:01 43.414807 -124.246157 236 19ft 0kts
19-Jan-18 19:02 43.414807 -124.246157 236 19ft 0kts
19-Jan-18 19:03 43.414807 -124.246157 236 19ft 0kts
19-Jan-18 19:04 43.414807 -124.246157 236 19ft 0kts
19-Jan-18 19:05 43.414807 -124.246157 236 19ft 0kts
19-Jan-18 19:06 43.414747 -124.246145 105 19ft 0kts
19-Jan-18 19:07 43.414761 -124.246088 62 19ft 2kts
19-Jan-18 19:08 43.416897 -124.245572 328 19ft 21kts
19-Jan-18 19:09 43.419038 -124.247008 59 19ft 0kts
19-Jan-18 19:10 43.419038 -124.247007 59 19ft 0kts
19-Jan-18 19:11 43.418686 -124.245384 149 19ft 0kts
19-Jan-18 19:12 43.403682 -124.233287 151 462ft 124kts
19-Jan-18 19:13 43.370540 -124.255320 258 2946ft 185kts
19-Jan-18 19:14 43.391362 -124.324055 297 6493ft 205kts
19-Jan-18 19:15 43.442611 -124.321182 56 10034ft 222kts
19-Jan-18 19:16 43.441029 -124.257905 118 12697ft 193kts
19-Jan-18 19:17 43.412611 -124.171199 126 14975ft 222kts
19-Jan-18 19:18 43.370624 -124.107019 136 16995ft 229kts
19-Jan-18 19:19 43.332614 -124.054973 136 18607ft 233kts
19-Jan-18 19:20 43.285618 -123.990842 135 20402ft 238kts
19-Jan-18 19:21 43.230340 -123.915369 135 22277ft 244kts
19-Jan-18 19:22 43.189627 -123.859864 135 23473ft 250kts
19-Jan-18 19:23 43.139193 -123.791749 135 24838ft 256kts
19-Jan-18 19:24 43.088058 -123.722697 136 26079ft 261kts
19-Jan-18 19:25 43.035243 -123.651483 136 26986ft 273kts
19-Jan-18 19:26 42.967165 -123.559815 136 27101ft 316kts
19-Jan-18 19:27 42.912945 -123.486991 136 27093ft 339kts
19-Jan-18 19:28 42.843275 -123.394062 136 27044ft 358kts
19-Jan-18 19:29 42.771124 -123.297974 136 27053ft 367kts
19-Jan-18 19:30 42.698128 -123.201077 136 27047ft 367kts
19-Jan-18 19:31 42.625033 -123.104193 136 27048ft 366kts
19-Jan-18 19:32 42.552056 -123.008054 136 27081ft 366kts
19-Jan-18 19:33 42.472877 -122.923245 160 27160ft 363kts
19-Jan-18 19:34 42.374483 -122.899283 177 27143ft 359kts
19-Jan-18 19:35 42.274986 -122.890710 178 27162ft 359kts
19-Jan-18 19:36 42.175155 -122.881236 177 27156ft 358kts
19-Jan-18 19:37 42.075783 -122.870790 177 27156ft 359kts
19-Jan-18 19:38 41.976437 -122.860454 177 27151ft 358kts
19-Jan-18 19:39 41.876766 -122.850186 177 27150ft 358kts
19-Jan-18 19:40 41.777379 -122.839819 177 27145ft 358kts
19-Jan-18 19:41 41.678314 -122.829427 178 27146ft 356kts
19-Jan-18 19:42 41.579717 -122.819546 178 27138ft 355kts
19-Jan-18 19:43 41.481249 -122.809626 178 27135ft 355kts
19-Jan-18 19:44 41.383935 -122.785011 163 27132ft 359kts
19-Jan-18 19:45 41.289634 -122.740910 163 27125ft 359kts
19-Jan-18 19:46 41.196037 -122.698221 164 26196ft 351kts
19-Jan-18 19:47 41.103178 -122.657790 163 24183ft 349kts
19-Jan-18 19:48 41.014284 -122.619741 162 22184ft 326kts
19-Jan-18 19:49 40.929191 -122.583496 163 20180ft 315kts
19-Jan-18 19:50 40.847081 -122.548948 163 18184ft 305kts
19-Jan-18 19:51 40.767333 -122.515332 163 16187ft 296kts
19-Jan-18 19:52 40.694317 -122.469247 144 14207ft 290kts
19-Jan-18 19:53 40.630244 -122.405942 144 12211ft 286kts
19-Jan-18 19:54 40.557989 -122.379468 182 10234ft 272kts
19-Jan-18 19:55 40.482944 -122.383067 184 8229ft 264kts
19-Jan-18 19:56 40.414160 -122.386362 183 6225ft 228kts
19-Jan-18 19:57 40.353872 -122.388638 182 4219ft 207kts
19-Jan-18 19:58 40.330958 -122.340611 55 3036ft 168kts
19-Jan-18 19:59 40.361521 -122.300339 34 3004ft 140kts
19-Jan-18 20:00 40.394130 -122.295076 359 2585ft 106kts
19-Jan-18 20:01 40.424408 -122.295049 0 2059ft 104kts
19-Jan-18 20:02 40.452258 -122.295143 0 1490ft 96kts
19-Jan-18 20:03 40.478322 -122.294969 1 973ft 91kts
19-Jan-18 20:04 40.503611 -122.294893 359 507ft 78kts
19-Jan-18 20:05 40.514125 -122.295374 270 504ft 14kts
19-Jan-18 20:06 40.511061 -122.296036 180 504ft 20kts
19-Jan-18 20:07 40.507374 -122.298932 266 504ft 12kts
19-Jan-18 20:08 40.508142 -122.299572 6 504ft 0kts
19-Jan-18 20:09 40.508142 -122.299572 6 504ft 0kts
19-Jan-18 20:10 40.508142 -122.299572 6 504ft 0kts
19-Jan-18 20:11 40.508142 -122.299572 6 504ft 0kts
19-Jan-18 20:12 40.508142 -122.299572 6 504ft 0kts
19-Jan-18 20:13 40.508142 -122.299572 6 504ft 0kts
19-Jan-18 20:14 40.508142 -122.299572 6 504ft 0kts
19-Jan-18 20:15 40.508142 -122.299572 6 504ft 0kts
19-Jan-18 20:16 40.508142 -122.299572 6 504ft 0kts
19-Jan-18 20:17 40.508142 -122.299572 6 504ft 0kts
19-Jan-18 20:18 40.508142 -122.299572 6 504ft 0kts
19-Jan-18 20:19 40.508142 -122.299572 6 504ft 0kts

Navigation Log

Ident Type
Flight plan parsing failed, navigation log unavailable